Time;durP1;ratioP1;P1;durP2;ratioP2;P2;SDS_P1;SDS_P2;PMS_P1;PMS_P2;Temp;Humidity;BMP_temperature;BMP_pressure;BME280_temperature;BME280_humidity;BME280_pressure;Samples;Min_cycle;Max_cycle;Signal;HPM_P1;HPM_P2
2021/03/13 00:02:03;;;;;;;7.13;2.97;;;7.00;99.90;;;;;;4972205;28;20279;-72
2021/03/13 00:04:29;;;;;;;6.57;2.57;;;7.10;99.90;;;;;;4972979;28;20209;-71
2021/03/13 00:06:55;;;;;;;8.73;3.77;;;7.00;99.90;;;;;;4972483;28;20244;-77
2021/03/13 00:09:22;;;;;;;4.87;2.57;;;7.00;99.90;;;;;;4972154;28;20686;-72
2021/03/13 00:11:48;;;;;;;10.40;4.23;;;6.90;99.90;;;;;;4972984;28;20217;-74
2021/03/13 00:14:15;;;;;;;11.33;2.80;;;6.90;99.90;;;;;;4972662;28;20202;-80
2021/03/13 00:16:42;;;;;;;3.97;2.23;;;6.90;99.90;;;;;;4972946;28;20209;-77
2021/03/13 00:19:08;;;;;;;3.87;2.33;;;6.90;99.90;;;;;;4972140;28;20707;-78
2021/03/13 00:21:35;;;;;;;6.80;2.77;;;7.00;99.90;;;;;;4973307;28;20217;-81
2021/03/13 00:24:01;;;;;;;7.40;3.03;;;6.90;99.90;;;;;;4972183;28;20268;-80
2021/03/13 00:26:28;;;;;;;12.33;3.50;;;6.90;99.90;;;;;;4972917;28;20236;-74
2021/03/13 00:28:54;;;;;;;6.23;2.43;;;6.90;99.90;;;;;;4972215;28;20214;-83
2021/03/13 00:31:21;;;;;;;2.97;2.03;;;6.90;99.90;;;;;;4972371;28;20205;-73
2021/03/13 00:33:48;;;;;;;3.53;2.30;;;6.90;99.90;;;;;;4973102;28;20216;-78
2021/03/13 00:36:15;;;;;;;7.13;3.03;;;7.00;99.90;;;;;;4972160;28;20213;-80
2021/03/13 00:38:41;;;;;;;8.67;3.23;;;6.90;99.90;;;;;;4972188;28;20225;-80
2021/03/13 00:41:07;;;;;;;8.03;2.80;;;6.90;99.90;;;;;;4971839;28;20206;-75
2021/03/13 00:43:34;;;;;;;9.33;2.50;;;6.90;99.90;;;;;;4971846;28;20715;-74
2021/03/13 00:46:01;;;;;;;4.47;2.70;;;6.80;99.90;;;;;;4972155;28;20216;-72
2021/03/13 00:48:27;;;;;;;5.83;2.43;;;6.70;99.90;;;;;;4972317;28;20268;-78
2021/03/13 00:50:54;;;;;;;5.03;2.30;;;6.70;99.90;;;;;;4972039;28;20205;-79
2021/03/13 00:53:21;;;;;;;7.03;2.47;;;6.70;99.90;;;;;;4971841;28;20209;-75
2021/03/13 00:55:47;;;;;;;5.17;2.27;;;6.70;99.90;;;;;;4972278;28;20206;-74
2021/03/13 00:58:14;;;;;;;6.73;2.53;;;6.80;99.90;;;;;;4971907;28;20689;-79
2021/03/13 01:00:40;;;;;;;8.77;3.70;;;6.90;99.90;;;;;;4971840;28;20632;-77
2021/03/13 01:03:07;;;;;;;5.07;2.93;;;6.90;99.90;;;;;;4971433;28;20233;-72
2021/03/13 01:05:34;;;;;;;6.67;2.73;;;6.90;99.90;;;;;;4971604;28;20268;-75
2021/03/13 01:08:03;;;;;;;6.03;2.70;;;6.90;99.90;;;;;;4971313;28;20678;-74
2021/03/13 01:10:34;;;;;;;7.07;2.23;;;6.90;99.90;;;;;;4971341;28;20276;-76
2021/03/13 01:13:00;;;;;;;6.67;3.40;;;6.90;99.90;;;;;;4971464;28;20213;-76
2021/03/13 01:15:27;;;;;;;9.43;3.80;;;6.90;99.90;;;;;;4971878;28;20213;-73
2021/03/13 01:17:54;;;;;;;13.53;4.37;;;6.70;99.90;;;;;;4957597;28;20678;-74
2021/03/13 01:20:23;;;;;;;8.17;4.00;;;6.40;99.90;;;;;;4971450;28;20209;-76
2021/03/13 01:22:50;;;;;;;7.90;4.70;;;6.20;99.90;;;;;;4971030;28;20225;-74
2021/03/13 01:25:18;;;;;;;7.27;3.93;;;6.10;99.90;;;;;;4972074;28;20214;-76
2021/03/13 01:27:45;;;;;;;3.93;3.40;;;6.10;99.90;;;;;;4971760;28;20205;-75
2021/03/13 01:30:14;;;;;;;7.20;3.93;;;6.10;99.90;;;;;;4971271;28;20590;-78
2021/03/13 01:32:40;;;;;;;9.10;3.47;;;5.90;99.90;;;;;;4974594;28;20677;-75
2021/03/13 01:35:08;;;;;;;5.63;3.93;;;6.00;99.90;;;;;;4974823;28;20220;-75
2021/03/13 01:37:35;;;;;;;7.50;4.37;;;6.10;99.90;;;;;;4975001;28;20588;-72
2021/03/13 01:40:02;;;;;;;8.00;2.77;;;6.20;99.90;;;;;;4975066;28;20217;-71
2021/03/13 01:42:30;;;;;;;8.37;4.00;;;6.20;99.90;;;;;;4975015;28;20661;-75
2021/03/13 01:44:56;;;;;;;7.57;3.53;;;6.30;99.90;;;;;;4974898;28;20233;-74
2021/03/13 01:47:24;;;;;;;8.00;3.63;;;6.40;99.90;;;;;;4975247;28;20681;-75
2021/03/13 01:49:52;;;;;;;8.23;3.97;;;6.30;99.90;;;;;;4974901;28;20212;-74
2021/03/13 01:52:19;;;;;;;5.13;3.87;;;6.20;99.90;;;;;;4974997;28;20213;-72
2021/03/13 01:54:46;;;;;;;7.67;3.73;;;6.20;99.90;;;;;;4975655;28;20279;-74
2021/03/13 01:57:13;;;;;;;4.23;2.87;;;6.10;99.90;;;;;;4974569;28;20653;-75
2021/03/13 01:59:41;;;;;;;11.27;4.70;;;5.90;99.90;;;;;;4973465;28;20268;-71
2021/03/13 02:02:09;;;;;;;12.17;5.07;;;5.80;99.90;;;;;;4974744;28;20288;-71
2021/03/13 02:04:36;;;;;;;10.13;4.00;;;5.80;99.90;;;;;;4974798;28;20213;-79
2021/03/13 02:07:07;;;;;;;7.23;3.73;;;6.00;99.90;;;;;;4974916;28;20265;-82
2021/03/13 02:09:43;;;;;;;5.53;3.67;;;5.90;99.90;;;;;;4975091;28;20616;-72
2021/03/13 02:12:19;;;;;;;7.90;3.27;;;5.90;99.90;;;;;;4974944;28;20221;-72
2021/03/13 02:14:56;;;;;;;4.90;3.37;;;5.90;99.90;;;;;;4975388;28;20212;-75
2021/03/13 02:17:33;;;;;;;8.57;5.07;;;5.90;99.90;;;;;;4974710;28;20205;-79
2021/03/13 02:20:25;;;;;;;6.17;3.77;;;5.90;99.90;;;;;;4974291;28;20220;-80
2021/03/13 02:22:53;;;;;;;7.57;3.83;;;6.00;99.90;;;;;;4974868;28;20229;-72
2021/03/13 02:25:31;;;;;;;6.00;3.57;;;6.00;99.90;;;;;;4976292;28;20209;-74
2021/03/13 02:28:05;;;;;;;8.77;3.73;;;5.90;99.90;;;;;;4974499;28;20296;-72
2021/03/13 02:30:33;;;;;;;4.13;2.80;;;5.90;99.90;;;;;;4974728;28;20588;-77
2021/03/13 02:33:04;;;;;;;3.97;3.07;;;5.90;99.90;;;;;;4974492;28;20220;-78
2021/03/13 02:35:35;;;;;;;4.47;3.07;;;6.00;99.90;;;;;;4974440;28;20206;-69
2021/03/13 02:38:04;;;;;;;8.17;2.80;;;6.00;99.90;;;;;;4973961;28;20673;-76
2021/03/13 02:40:32;;;;;;;4.50;2.90;;;6.00;99.90;;;;;;4973947;28;20218;-76
2021/03/13 02:43:01;;;;;;;4.33;2.37;;;6.00;99.90;;;;;;4973744;28;20720;-74
2021/03/13 02:45:31;;;;;;;4.57;2.70;;;6.00;99.90;;;;;;4973972;28;20217;-74
2021/03/13 02:48:00;;;;;;;5.73;2.73;;;6.00;99.90;;;;;;4973712;28;20198;-72
2021/03/13 02:50:27;;;;;;;3.43;2.50;;;6.00;99.90;;;;;;4974013;28;20206;-77
2021/03/13 02:52:55;;;;;;;4.37;2.10;;;5.90;99.90;;;;;;4973910;28;20208;-77
2021/03/13 02:55:24;;;;;;;3.87;2.63;;;6.00;99.90;;;;;;4974305;28;20216;-72
2021/03/13 02:57:53;;;;;;;5.47;2.40;;;5.80;99.90;;;;;;4974240;28;20237;-73
2021/03/13 03:00:21;;;;;;;5.30;2.63;;;5.90;99.90;;;;;;4974332;28;20228;-71
2021/03/13 03:02:53;;;;;;;4.50;2.40;;;5.90;99.90;;;;;;4974145;28;20252;-77
2021/03/13 03:05:22;;;;;;;6.20;2.30;;;5.90;99.90;;;;;;4974402;28;20217;-76
2021/03/13 03:07:51;;;;;;;6.47;2.83;;;5.90;99.90;;;;;;4973473;28;20206;-73
2021/03/13 03:10:19;;;;;;;8.17;2.73;;;5.90;99.90;;;;;;4974157;28;20209;-71
2021/03/13 03:12:47;;;;;;;3.27;2.63;;;6.10;99.90;;;;;;4974078;28;20247;-80
2021/03/13 03:15:16;;;;;;;4.87;2.87;;;6.10;99.90;;;;;;4974604;28;20209;-78
2021/03/13 03:17:43;;;;;;;7.33;2.47;;;6.20;99.90;;;;;;4978548;28;20221;-82
2021/03/13 03:20:12;;;;;;;9.30;3.80;;;6.40;99.90;;;;;;4973977;28;20217;-78
2021/03/13 03:22:40;;;;;;;2.53;1.90;;;6.50;99.90;;;;;;4973998;28;20237;-76
2021/03/13 03:25:09;;;;;;;6.50;2.00;;;6.60;99.90;;;;;;4973369;28;20210;-80
2021/03/13 03:27:49;;;;;;;4.30;2.17;;;6.60;99.90;;;;;;4973692;28;20210;-71
2021/03/13 03:30:19;;;;;;;4.20;2.13;;;6.70;99.90;;;;;;4973109;28;20210;-77
2021/03/13 03:32:45;;;;;;;3.30;1.53;;;6.80;99.90;;;;;;4973445;28;20585;-70
2021/03/13 03:35:12;;;;;;;3.37;1.87;;;6.70;99.90;;;;;;4972900;28;20210;-71
2021/03/13 03:37:40;;;;;;;3.30;2.60;;;6.70;99.90;;;;;;4973164;28;20225;-73
2021/03/13 03:40:08;;;;;;;2.63;1.73;;;6.80;99.90;;;;;;4972569;28;20217;-73
2021/03/13 03:42:41;;;;;;;2.23;1.93;;;6.80;99.90;;;;;;4972841;28;20256;-74
2021/03/13 03:45:10;;;;;;;5.27;2.50;;;6.70;99.90;;;;;;4972397;28;20249;-71
2021/03/13 03:47:39;;;;;;;5.27;1.97;;;6.70;99.90;;;;;;4972707;28;20205;-76
2021/03/13 03:50:07;;;;;;;6.27;2.50;;;6.80;99.90;;;;;;4972571;28;20271;-75
2021/03/13 03:52:34;;;;;;;3.67;2.37;;;6.70;99.90;;;;;;4973044;28;20686;-75
2021/03/13 03:55:02;;;;;;;6.73;3.10;;;6.70;99.90;;;;;;4972213;28;20638;-75
2021/03/13 03:57:31;;;;;;;4.17;2.00;;;6.70;99.90;;;;;;4973513;28;20202;-77
2021/03/13 03:59:58;;;;;;;4.83;2.77;;;6.80;99.90;;;;;;4972535;28;20217;-76
2021/03/13 04:02:28;;;;;;;7.37;2.17;;;6.80;99.90;;;;;;4972811;28;20229;-76
2021/03/13 04:04:56;;;;;;;4.20;2.37;;;6.80;99.90;;;;;;4972857;28;20650;-84
2021/03/13 04:07:22;;;;;;;4.73;1.83;;;6.80;99.90;;;;;;4972595;28;20552;-72
2021/03/13 04:09:50;;;;;;;3.63;2.17;;;6.80;99.90;;;;;;4972642;28;20209;-69
2021/03/13 04:12:20;;;;;;;4.07;2.20;;;6.90;99.90;;;;;;4972920;28;20674;-73
2021/03/13 04:14:48;;;;;;;3.10;2.07;;;7.00;99.90;;;;;;4972263;28;20666;-73
2021/03/13 04:17:15;;;;;;;9.27;2.97;;;7.00;99.90;;;;;;4972703;28;20210;-81
2021/03/13 04:19:43;;;;;;;6.80;2.00;;;7.10;99.90;;;;;;4972606;28;20206;-76
2021/03/13 04:22:10;;;;;;;4.17;2.77;;;7.20;99.90;;;;;;4972011;28;20241;-71
2021/03/13 04:24:39;;;;;;;3.83;2.77;;;7.20;99.90;;;;;;4972363;28;20213;-74
2021/03/13 04:27:06;;;;;;;6.33;3.20;;;7.10;99.90;;;;;;4972270;28;20213;-74
2021/03/13 04:29:33;;;;;;;6.77;3.93;;;7.20;99.90;;;;;;4972093;28;20209;-71
2021/03/13 04:32:02;;;;;;;6.60;5.03;;;7.20;99.90;;;;;;4971896;28;20603;-75
2021/03/13 04:34:30;;;;;;;10.30;6.27;;;7.30;99.90;;;;;;4972101;28;20209;-70
2021/03/13 04:36:57;;;;;;;8.87;5.90;;;7.30;99.90;;;;;;4971794;28;20666;-77
2021/03/13 04:39:25;;;;;;;5.33;3.53;;;7.30;99.90;;;;;;4972307;28;20276;-72
2021/03/13 04:41:52;;;;;;;6.33;3.77;;;7.30;99.90;;;;;;4971750;28;20676;-69
2021/03/13 04:44:19;;;;;;;5.93;3.87;;;7.20;99.90;;;;;;4971968;28;20263;-69
2021/03/13 04:46:48;;;;;;;7.27;3.87;;;7.20;99.90;;;;;;4972235;28;20264;-72
2021/03/13 04:49:15;;;;;;;7.60;4.17;;;7.20;99.90;;;;;;4972252;28;20219;-80
2021/03/13 04:51:43;;;;;;;6.33;3.47;;;7.20;99.90;;;;;;4972542;28;20562;-75
2021/03/13 04:54:10;;;;;;;5.93;3.10;;;7.20;99.90;;;;;;4972256;28;20213;-75
2021/03/13 04:56:37;;;;;;;5.17;3.03;;;7.20;99.90;;;;;;4972297;28;20205;-70
2021/03/13 04:59:03;;;;;;;4.53;3.53;;;7.20;99.90;;;;;;4971344;28;20232;-74
2021/03/13 05:01:30;;;;;;;4.57;3.63;;;7.20;99.90;;;;;;4971919;28;20210;-71
2021/03/13 05:03:57;;;;;;;4.40;3.03;;;7.10;99.90;;;;;;4971488;28;20239;-78
2021/03/13 05:06:24;;;;;;;4.67;2.37;;;7.10;99.90;;;;;;4971049;28;20622;-76
2021/03/13 05:08:50;;;;;;;5.50;2.80;;;7.00;99.90;;;;;;4975848;28;20213;-75
2021/03/13 05:11:17;;;;;;;3.67;2.60;;;6.90;99.90;;;;;;4977772;28;20205;-72
2021/03/13 05:13:44;;;;;;;3.63;2.10;;;6.80;99.90;;;;;;4972389;28;20213;-72
2021/03/13 05:16:10;;;;;;;4.83;2.20;;;6.60;99.90;;;;;;4971157;28;20606;-75
2021/03/13 05:18:37;;;;;;;3.37;2.33;;;6.60;99.90;;;;;;4972270;28;20610;-71
2021/03/13 05:21:04;;;;;;;6.97;2.97;;;6.50;99.90;;;;;;4971659;28;20357;-72
2021/03/13 05:23:31;;;;;;;5.93;3.07;;;6.50;99.90;;;;;;4972060;28;20233;-71
2021/03/13 05:25:57;;;;;;;2.60;2.27;;;6.50;99.90;;;;;;4971619;28;20216;-76
2021/03/13 05:28:24;;;;;;;6.17;2.60;;;6.50;99.90;;;;;;4971510;28;20205;-78
2021/03/13 05:30:50;;;;;;;5.00;2.60;;;6.40;99.90;;;;;;4971554;28;20213;-74
2021/03/13 05:33:17;;;;;;;5.57;2.80;;;6.30;99.90;;;;;;4971891;28;20232;-78
2021/03/13 05:35:43;;;;;;;2.77;2.47;;;6.20;99.90;;;;;;4972675;28;20252;-72
2021/03/13 05:38:10;;;;;;;4.23;2.40;;;6.30;99.90;;;;;;4971511;28;20228;-76
2021/03/13 05:40:37;;;;;;;6.27;2.47;;;6.30;99.90;;;;;;4971947;28;20213;-71
2021/03/13 05:43:04;;;;;;;4.17;2.90;;;6.50;99.90;;;;;;4971226;28;20229;-72
2021/03/13 05:45:31;;;;;;;4.37;3.43;;;6.50;99.90;;;;;;4971515;28;20214;-73
2021/03/13 05:47:58;;;;;;;4.30;2.83;;;6.50;99.90;;;;;;4971368;28;20345;-80
2021/03/13 05:50:28;;;;;;;6.37;2.87;;;6.50;99.90;;;;;;4971704;28;20256;-74
2021/03/13 05:52:55;;;;;;;4.77;3.20;;;6.50;99.90;;;;;;4971478;28;20293;-76
2021/03/13 05:55:23;;;;;;;4.43;3.30;;;6.60;99.90;;;;;;4971270;28;20220;-72
2021/03/13 05:57:51;;;;;;;4.50;2.67;;;6.70;99.90;;;;;;4971031;28;20615;-80
2021/03/13 06:00:20;;;;;;;4.83;3.10;;;6.80;99.90;;;;;;4971773;28;20316;-79
2021/03/13 06:02:47;;;;;;;5.33;2.60;;;6.70;99.90;;;;;;4971194;28;20604;-76
2021/03/13 06:05:15;;;;;;;5.60;2.73;;;6.60;99.90;;;;;;4971349;28;20217;-70
2021/03/13 06:07:43;;;;;;;2.93;2.13;;;6.60;99.90;;;;;;4971273;28;20720;-79
2021/03/13 06:10:13;;;;;;;5.20;2.90;;;6.70;99.90;;;;;;4971301;28;20284;-87
2021/03/13 06:12:41;;;;;;;9.83;2.90;;;6.90;99.90;;;;;;4971145;28;20217;-70
2021/03/13 06:15:08;;;;;;;2.83;1.93;;;6.80;99.90;;;;;;4971051;28;20209;-69
2021/03/13 06:17:56;;;;;;;7.43;2.60;;;6.80;99.90;;;;;;4972534;28;20696;-68
2021/03/13 06:20:29;;;;;;;3.53;2.13;;;6.70;99.90;;;;;;4974981;28;20209;-68
2021/03/13 06:22:56;;;;;;;3.53;2.27;;;6.70;99.90;;;;;;4974177;28;20620;-74
2021/03/13 06:25:26;;;;;;;5.73;3.27;;;6.60;99.90;;;;;;4974898;28;20220;-70
2021/03/13 06:28:08;;;;;;;5.23;2.07;;;6.70;99.90;;;;;;4974432;28;20209;-70
2021/03/13 06:30:36;;;;;;;3.03;2.10;;;6.80;99.90;;;;;;4975381;28;20213;-71
2021/03/13 06:33:19;;;;;;;5.13;2.97;;;7.00;99.90;;;;;;4972629;28;20250;-74
2021/03/13 06:35:46;;;;;;;3.77;2.57;;;7.00;99.90;;;;;;4974860;28;20205;-77
2021/03/13 06:38:18;;;;;;;3.57;2.73;;;7.00;99.90;;;;;;4973626;28;20760;-73
2021/03/13 06:40:45;;;;;;;2.23;2.03;;;7.10;99.90;;;;;;4971977;28;20206;-75
2021/03/13 06:43:21;;;;;;;7.77;2.63;;;7.10;99.90;;;;;;4971940;28;20659;-75
2021/03/13 06:46:13;;;;;;;3.80;2.40;;;7.10;99.90;;;;;;4974085;28;20206;-76
2021/03/13 06:48:42;;;;;;;4.10;3.50;;;7.20;99.90;;;;;;4974126;28;20205;-72
2021/03/13 06:51:33;;;;;;;3.43;2.50;;;7.00;99.90;;;;;;4973654;28;20221;-71
2021/03/13 06:54:06;;;;;;;5.70;2.70;;;7.00;99.90;;;;;;4973487;28;20562;-72
2021/03/13 06:56:34;;;;;;;7.07;2.60;;;7.20;99.90;;;;;;4974617;28;20209;-71
2021/03/13 06:59:02;;;;;;;3.77;2.93;;;7.20;99.90;;;;;;4973607;28;20584;-72
2021/03/13 07:01:30;;;;;;;4.03;2.90;;;7.30;99.90;;;;;;4973900;28;20213;-71
2021/03/13 07:03:57;;;;;;;6.67;3.13;;;7.30;99.90;;;;;;4973202;28;20237;-72
2021/03/13 07:06:25;;;;;;;7.30;3.87;;;7.40;99.90;;;;;;4973554;28;20209;-71
2021/03/13 07:08:52;;;;;;;8.47;3.67;;;7.60;99.90;;;;;;4973236;28;20214;-70
2021/03/13 07:11:22;;;;;;;4.27;2.90;;;7.70;99.90;;;;;;4973791;28;20213;-70
2021/03/13 07:13:53;;;;;;;8.00;3.47;;;7.80;99.90;;;;;;4974071;28;20206;-70
2021/03/13 07:16:28;;;;;;;3.70;2.93;;;7.90;99.90;;;;;;4973658;28;20225;-71
2021/03/13 07:18:57;;;;;;;3.23;2.40;;;7.90;99.90;;;;;;4973362;28;20205;-70
2021/03/13 07:21:25;;;;;;;5.40;2.97;;;8.10;99.90;;;;;;4973351;28;20214;-72
2021/03/13 07:23:57;;;;;;;3.07;2.40;;;8.10;99.90;;;;;;4967639;28;20248;-70
2021/03/13 07:26:26;;;;;;;5.20;2.90;;;8.20;99.90;;;;;;4968914;28;20654;-74
2021/03/13 07:28:58;;;;;;;4.33;2.70;;;8.30;99.90;;;;;;4971978;28;20205;-70
2021/03/13 07:31:27;;;;;;;3.70;2.23;;;8.40;99.90;;;;;;4972815;28;20201;-70
2021/03/13 07:33:58;;;;;;;4.67;2.87;;;8.40;99.90;;;;;;4973091;28;20205;-70
2021/03/13 07:36:25;;;;;;;4.20;2.30;;;8.50;99.90;;;;;;4972981;28;20206;-72
2021/03/13 07:38:54;;;;;;;3.83;2.20;;;8.60;99.90;;;;;;4972708;28;20210;-70
2021/03/13 07:41:22;;;;;;;7.60;3.80;;;8.70;99.90;;;;;;4973045;28;20264;-76
2021/03/13 07:43:50;;;;;;;4.50;2.57;;;8.90;99.90;;;;;;4973187;28;20237;-71
2021/03/13 07:46:17;;;;;;;4.80;2.40;;;9.10;99.90;;;;;;4973296;28;20209;-71
2021/03/13 07:48:45;;;;;;;9.13;3.30;;;9.20;99.90;;;;;;4972536;28;20268;-71
2021/03/13 07:51:12;;;;;;;7.20;3.37;;;9.40;99.90;;;;;;4970963;28;20213;-75
2021/03/13 07:53:41;;;;;;;5.40;3.50;;;9.60;99.90;;;;;;4971884;28;20219;-72
2021/03/13 07:56:11;;;;;;;6.97;2.83;;;9.70;99.90;;;;;;4972501;28;20245;-74
2021/03/13 07:58:39;;;;;;;3.67;2.60;;;9.90;99.90;;;;;;4972636;28;20209;-72
2021/03/13 08:01:06;;;;;;;6.60;3.13;;;9.90;99.90;;;;;;4972530;28;20205;-75
2021/03/13 08:03:48;;;;;;;4.00;2.30;;;9.90;99.90;;;;;;4972747;28;20233;-73
2021/03/13 08:06:16;;;;;;;5.80;2.73;;;9.90;99.90;;;;;;4972723;28;20210;-74
2021/03/13 08:08:44;;;;;;;2.73;2.20;;;10.10;99.90;;;;;;4972501;28;20209;-76
2021/03/13 08:11:12;;;;;;;4.80;2.43;;;10.20;99.90;;;;;;4972193;28;20576;-70
2021/03/13 08:13:49;;;;;;;4.57;2.60;;;10.20;99.90;;;;;;4972546;28;20741;-70
2021/03/13 08:16:19;;;;;;;3.50;2.07;;;10.60;99.90;;;;;;4972210;28;20201;-71
2021/03/13 08:18:47;;;;;;;3.43;2.07;;;10.90;99.90;;;;;;4972838;28;20201;-70
2021/03/13 08:21:43;;;;;;;3.53;2.30;;;12.10;99.90;;;;;;4972077;28;20252;-72
2021/03/13 08:24:10;;;;;;;3.33;2.43;;;13.80;99.90;;;;;;4972119;28;20724;-70
2021/03/13 08:27:07;;;;;;;3.23;2.30;;;15.30;99.90;;;;;;4972395;28;20253;-70
2021/03/13 08:29:57;;;;;;;3.33;1.87;;;13.30;99.90;;;;;;4970947;28;20210;-71
2021/03/13 08:32:57;;;;;;;2.17;1.80;;;13.00;99.90;;;;;;4972461;28;20244;-72
2021/03/13 08:35:35;;;;;;;3.47;1.50;;;13.70;99.90;;;;;;4893536;29;20759;-71
2021/03/13 08:38:02;;;;;;;3.53;1.63;;;14.80;99.90;;;;;;4893197;29;20240;-73
2021/03/13 08:40:29;;;;;;;2.88;2.08;;;13.70;99.90;;;;;;4934890;28;20217;-71
2021/03/13 08:42:55;;;;;;;3.22;1.80;;;13.50;99.90;;;;;;4971741;28;20858;-76
2021/03/13 08:45:23;;;;;;;2.90;1.25;;;12.70;99.90;;;;;;4971967;28;20205;-71
2021/03/13 08:47:52;;;;;;;4.40;1.83;;;13.20;99.90;;;;;;4972378;28;20213;-71
2021/03/13 08:50:56;;;;;;;5.43;1.50;;;15.40;99.90;;;;;;4971823;28;20276;-72
2021/03/13 08:53:35;;;;;;;3.17;1.75;;;16.30;99.90;;;;;;4972062;28;20632;-80
2021/03/13 08:56:02;;;;;;;5.85;1.75;;;14.50;99.90;;;;;;4971722;28;20222;-77
2021/03/13 08:58:42;;;;;;;2.92;1.48;;;14.80;99.90;;;;;;4971695;28;20593;-71
2021/03/13 09:01:20;;;;;;;2.38;1.90;;;15.50;99.90;;;;;;4971550;28;20623;-71
2021/03/13 09:03:48;;;;;;;8.82;2.80;;;14.70;99.90;;;;;;4971754;28;20252;-75
2021/03/13 09:06:17;;;;;;;5.47;2.00;;;14.10;99.90;;;;;;4971489;28;20577;-76
2021/03/13 09:08:44;;;;;;;5.75;1.88;;;14.30;99.90;;;;;;4972046;28;20292;-77
2021/03/13 09:11:10;;;;;;;3.03;1.65;;;15.10;99.90;;;;;;4971367;28;20213;-71
2021/03/13 09:13:37;;;;;;;4.20;1.77;;;15.00;99.90;;;;;;4971896;28;20205;-73
2021/03/13 09:16:17;;;;;;;2.95;2.25;;;16.30;99.90;;;;;;4971039;28;20205;-72
2021/03/13 09:18:52;;;;;;;6.38;1.70;;;16.60;99.90;;;;;;4972016;28;20207;-77
2021/03/13 09:21:42;;;;;;;6.35;2.20;;;16.30;99.90;;;;;;4971811;28;20219;-71
2021/03/13 09:24:11;;;;;;;3.95;2.40;;;16.50;99.90;;;;;;4971343;28;20229;-73
2021/03/13 09:26:38;;;;;;;3.88;2.45;;;17.70;99.90;;;;;;4971682;28;20201;-71
2021/03/13 09:29:05;;;;;;;5.57;2.65;;;17.70;99.90;;;;;;4971523;28;20209;-73
2021/03/13 09:31:31;;;;;;;4.45;2.42;;;19.10;99.90;;;;;;4971261;28;20216;-74
2021/03/13 09:34:20;;;;;;;3.47;2.20;;;18.30;99.90;;;;;;4971196;28;20213;-74
2021/03/13 09:36:48;;;;;;;4.35;1.95;;;20.00;99.90;;;;;;4965864;28;20228;-71
2021/03/13 09:39:21;;;;;;;3.10;1.73;;;19.50;99.90;;;;;;4971489;28;20264;-75
2021/03/13 09:42:02;;;;;;;6.28;2.25;;;16.80;99.90;;;;;;4971492;28;20688;-73
2021/03/13 09:44:36;;;;;;;3.63;1.75;;;16.30;99.90;;;;;;4971619;28;20236;-74
2021/03/13 09:47:13;;;;;;;3.70;1.27;;;16.00;99.90;;;;;;4970914;28;20217;-72
2021/03/13 09:49:40;;;;;;;2.47;1.60;;;17.30;99.90;;;;;;4971275;28;20636;-73
2021/03/13 09:52:08;;;;;;;4.68;1.65;;;19.40;99.90;;;;;;4971600;28;20256;-76
2021/03/13 09:54:34;;;;;;;2.67;1.58;;;20.80;99.90;;;;;;4975191;28;20315;-74
2021/03/13 09:57:08;;;;;;;2.50;1.48;;;22.10;99.90;;;;;;4974788;28;20214;-74
2021/03/13 09:59:35;;;;;;;4.07;1.92;;;22.00;99.90;;;;;;4975177;28;20209;-79
2021/03/13 10:02:02;;;;;;;4.82;1.42;;;22.40;99.90;;;;;;4974652;28;20213;-74
2021/03/13 10:04:29;;;;;;;4.65;1.90;;;22.20;99.90;;;;;;4974750;28;20229;-72
2021/03/13 10:06:55;;;;;;;2.97;1.70;;;22.90;99.90;;;;;;4974887;28;20597;-76
2021/03/13 10:09:23;;;;;;;1.92;1.30;;;23.30;99.90;;;;;;4974949;28;20268;-73
2021/03/13 10:11:49;;;;;;;5.53;1.63;;;23.10;99.90;;;;;;4974984;28;20557;-71
2021/03/13 10:14:20;;;;;;;3.95;1.20;;;23.80;99.90;;;;;;4974388;28;20212;-72
2021/03/13 10:16:47;;;;;;;4.28;1.92;;;23.10;99.90;;;;;;4975048;28;20212;-72
2021/03/13 10:19:33;;;;;;;3.15;2.10;;;22.70;99.90;;;;;;4974764;28;20213;-76
2021/03/13 10:22:22;;;;;;;3.30;1.77;;;22.90;99.90;;;;;;4974421;28;20287;-74
2021/03/13 10:24:55;;;;;;;4.22;1.38;;;20.50;99.90;;;;;;4969496;28;20214;-74
2021/03/13 10:27:28;;;;;;;2.60;0.75;;;19.90;99.90;;;;;;4974647;28;20213;-72
2021/03/13 10:29:56;;;;;;;2.72;1.60;;;18.30;99.90;;;;;;4973066;28;20206;-72
2021/03/13 10:32:28;;;;;;;3.10;0.98;;;20.20;99.90;;;;;;4974043;28;20260;-72
2021/03/13 10:35:17;;;;;;;1.35;1.13;;;19.50;99.90;;;;;;4973794;28;20210;-73
2021/03/13 10:37:45;;;;;;;2.22;1.27;;;18.80;99.90;;;;;;4974472;28;20221;-73
2021/03/13 10:40:28;;;;;;;2.45;1.02;;;17.40;99.90;;;;;;4973762;28;20215;-77
2021/03/13 10:43:13;;;;;;;3.85;2.33;;;15.90;99.90;;;;;;4974133;28;20248;-72
2021/03/13 10:45:40;;;;;;;13.48;8.20;;;14.80;99.90;;;;;;4974501;28;20205;-76
2021/03/13 10:48:09;;;;;;;19.05;13.13;;;14.90;99.90;;;;;;4973935;28;20209;-72
2021/03/13 10:50:36;;;;;;;4.97;3.63;;;15.30;99.90;;;;;;4973993;28;20228;-73
2021/03/13 10:53:27;;;;;;;2.78;1.20;;;15.50;99.90;;;;;;4973836;28;20214;-72
2021/03/13 10:55:55;;;;;;;8.18;5.40;;;15.40;99.90;;;;;;4973822;28;20681;-80
2021/03/13 10:58:25;;;;;;;2.38;1.90;;;15.50;99.90;;;;;;4974274;28;20213;-76
2021/03/13 11:00:51;;;;;;;9.38;4.45;;;15.50;99.90;;;;;;4973689;28;20216;-75
2021/03/13 11:03:18;;;;;;;2.70;1.23;;;16.10;99.90;;;;;;4973276;28;20240;-73
2021/03/13 11:05:48;;;;;;;3.80;2.17;;;16.10;99.90;;;;;;4973453;28;20678;-75
2021/03/13 11:08:15;;;;;;;2.25;1.27;;;16.30;99.90;;;;;;4973662;28;20216;-76
2021/03/13 11:10:41;;;;;;;2.65;1.20;;;16.10;99.90;;;;;;4973807;28;20678;-75
2021/03/13 11:13:09;;;;;;;6.20;3.63;;;16.10;99.90;;;;;;4973128;28;20213;-74
2021/03/13 11:15:35;;;;;;;10.80;7.68;;;15.90;99.90;;;;;;4973632;28;20713;-73
2021/03/13 11:18:02;;;;;;;9.35;6.28;;;15.90;99.90;;;;;;4973290;28;20208;-74
2021/03/13 11:20:29;;;;;;;2.90;2.08;;;15.90;99.90;;;;;;4973745;28;20209;-74
2021/03/13 11:22:55;;;;;;;3.95;2.10;;;16.20;99.90;;;;;;4972971;28;20237;-76
2021/03/13 11:25:22;;;;;;;7.25;1.98;;;16.00;99.90;;;;;;4973931;28;20216;-74
2021/03/13 11:27:49;;;;;;;2.47;1.23;;;15.90;99.90;;;;;;4973885;28;20218;-75
2021/03/13 11:30:19;;;;;;;3.10;1.55;;;15.80;99.90;;;;;;4973296;28;20228;-74
2021/03/13 11:32:45;;;;;;;4.13;2.03;;;15.80;99.90;;;;;;4973723;28;20213;-76
2021/03/13 11:35:12;;;;;;;2.08;1.35;;;15.70;99.90;;;;;;4972874;28;20240;-78
2021/03/13 11:37:40;;;;;;;3.28;1.00;;;15.80;99.90;;;;;;4973325;28;20226;-73
2021/03/13 11:40:09;;;;;;;7.47;3.92;;;16.00;99.90;;;;;;4972892;28;20217;-73
2021/03/13 11:42:35;;;;;;;5.63;2.65;;;16.10;99.90;;;;;;4973505;28;20210;-72
2021/03/13 11:45:03;;;;;;;5.13;1.73;;;16.10;99.90;;;;;;4972644;28;20206;-74
2021/03/13 11:47:30;;;;;;;2.17;1.15;;;16.00;99.90;;;;;;4973127;28;20209;-73
2021/03/13 11:49:57;;;;;;;4.28;1.95;;;16.30;99.90;;;;;;4972206;28;20305;-74
2021/03/13 11:52:23;;;;;;;3.53;2.45;;;16.20;99.90;;;;;;4972905;28;20205;-75
2021/03/13 11:54:52;;;;;;;2.58;1.23;;;16.40;99.90;;;;;;4973377;28;20689;-75
2021/03/13 11:57:19;;;;;;;4.65;1.30;;;16.70;99.90;;;;;;4973158;28;20237;-73
2021/03/13 11:59:46;;;;;;;3.88;1.92;;;16.80;99.90;;;;;;4972980;28;20214;-79
2021/03/13 12:02:12;;;;;;;7.78;2.42;;;17.00;99.90;;;;;;4972143;28;20214;-73
2021/03/13 12:04:40;;;;;;;3.90;1.73;;;16.80;99.90;;;;;;4972470;28;20245;-77
2021/03/13 12:07:07;;;;;;;3.75;2.30;;;16.70;99.90;;;;;;4972612;28;20213;-73
2021/03/13 12:09:33;;;;;;;4.80;1.40;;;16.60;99.90;;;;;;4972844;28;20213;-75
2021/03/13 12:12:00;;;;;;;2.58;1.20;;;16.50;99.90;;;;;;4972526;28;20209;-73
2021/03/13 12:14:26;;;;;;;3.78;1.55;;;16.10;99.90;;;;;;4972180;28;20296;-77
2021/03/13 12:16:53;;;;;;;1.70;1.00;;;16.70;99.90;;;;;;4972329;28;20213;-78
2021/03/13 12:19:20;;;;;;;2.83;1.30;;;16.70;99.90;;;;;;4972710;28;20236;-78
2021/03/13 12:21:47;;;;;;;2.28;1.55;;;17.00;99.90;;;;;;4973156;28;20202;-84
2021/03/13 12:24:14;;;;;;;2.90;1.73;;;17.30;99.90;;;;;;4972459;28;20602;-73
2021/03/13 12:26:40;;;;;;;1.13;1.02;;;17.60;99.90;;;;;;4972287;28;20695;-73
2021/03/13 12:29:07;;;;;;;1.90;0.75;;;16.90;99.90;;;;;;4972111;28;20209;-77
2021/03/13 12:31:33;;;;;;;2.33;1.55;;;16.20;99.90;;;;;;4971294;28;20626;-75
2021/03/13 12:33:59;;;;;;;3.58;0.98;;;15.90;99.90;;;;;;4971388;28;20210;-76
2021/03/13 12:36:26;;;;;;;4.78;1.45;;;16.00;99.90;;;;;;4972360;28;20217;-79
2021/03/13 12:38:53;;;;;;;5.50;1.88;;;15.80;99.90;;;;;;4971831;28;20302;-73
2021/03/13 12:41:20;;;;;;;2.55;0.80;;;15.60;99.90;;;;;;4972270;28;20205;-74
2021/03/13 12:43:46;;;;;;;2.45;1.08;;;15.70;99.90;;;;;;4972176;28;20229;-75
2021/03/13 12:46:15;;;;;;;1.42;0.98;;;15.50;99.90;;;;;;4971784;28;20213;-73
2021/03/13 12:48:42;;;;;;;4.15;1.33;;;15.80;99.90;;;;;;4971663;28;20634;-74
2021/03/13 12:51:09;;;;;;;1.95;1.10;;;15.70;99.90;;;;;;4972031;28;20227;-75
2021/03/13 12:53:35;;;;;;;2.35;0.88;;;15.70;99.90;;;;;;4971793;28;20213;-74
2021/03/13 12:56:03;;;;;;;2.45;1.45;;;16.10;99.90;;;;;;4971504;28;20748;-73
2021/03/13 12:58:29;;;;;;;2.78;1.00;;;16.10;99.90;;;;;;4971558;28;20217;-78
2021/03/13 13:00:56;;;;;;;1.55;1.00;;;15.70;99.90;;;;;;4971863;28;20276;-72
2021/03/13 13:03:23;;;;;;;3.05;1.55;;;16.00;99.90;;;;;;4971733;28;20229;-73
2021/03/13 13:05:49;;;;;;;3.40;1.13;;;16.10;99.90;;;;;;4971816;28;20206;-74